sensor_id;sensor_type;location;lat;lon;timestamp;temperature;humidity
44990;DHT22;30723;51.206;3.326;2023-09-19T00:00:38;15.10;99.90
44990;DHT22;30723;51.206;3.326;2023-09-19T00:03:06;15.10;99.90
44990;DHT22;30723;51.206;3.326;2023-09-19T00:05:35;15.10;99.90
44990;DHT22;30723;51.206;3.326;2023-09-19T00:08:02;15.10;99.90
44990;DHT22;30723;51.206;3.326;2023-09-19T00:10:32;15.00;99.90
44990;DHT22;30723;51.206;3.326;2023-09-19T00:13:01;15.00;99.90
44990;DHT22;30723;51.206;3.326;2023-09-19T00:15:37;14.90;99.90
44990;DHT22;30723;51.206;3.326;2023-09-19T00:18:04;14.90;99.90
44990;DHT22;30723;51.206;3.326;2023-09-19T00:20:36;14.90;99.90
44990;DHT22;30723;51.206;3.326;2023-09-19T00:23:02;15.00;99.90
44990;DHT22;30723;51.206;3.326;2023-09-19T00:25:31;15.00;99.90
44990;DHT22;30723;51.206;3.326;2023-09-19T00:27:57;14.90;99.90
44990;DHT22;30723;51.206;3.326;2023-09-19T00:30:23;14.90;99.90
44990;DHT22;30723;51.206;3.326;2023-09-19T00:32:50;14.90;99.90
44990;DHT22;30723;51.206;3.326;2023-09-19T00:35:23;14.90;99.90
44990;DHT22;30723;51.206;3.326;2023-09-19T00:37:53;14.90;99.90
44990;DHT22;30723;51.206;3.326;2023-09-19T00:40:19;14.90;99.90
44990;DHT22;30723;51.206;3.326;2023-09-19T00:42:47;14.90;99.90
44990;DHT22;30723;51.206;3.326;2023-09-19T00:45:15;15.00;99.90
44990;DHT22;30723;51.206;3.326;2023-09-19T00:47:49;15.00;99.90
44990;DHT22;30723;51.206;3.326;2023-09-19T00:50:17;15.00;99.90
44990;DHT22;30723;51.206;3.326;2023-09-19T00:52:46;15.00;99.90
44990;DHT22;30723;51.206;3.326;2023-09-19T00:55:15;15.00;99.90
44990;DHT22;30723;51.206;3.326;2023-09-19T00:57:42;15.10;99.90
44990;DHT22;30723;51.206;3.326;2023-09-19T01:00:09;15.00;99.90
44990;DHT22;30723;51.206;3.326;2023-09-19T01:02:42;15.00;99.90
44990;DHT22;30723;51.206;3.326;2023-09-19T01:05:09;14.90;99.90
44990;DHT22;30723;51.206;3.326;2023-09-19T01:07:36;14.80;99.90
44990;DHT22;30723;51.206;3.326;2023-09-19T01:10:11;14.80;99.90
44990;DHT22;30723;51.206;3.326;2023-09-19T01:26:52;14.80;99.90
44990;DHT22;30723;51.206;3.326;2023-09-19T01:29:38;14.80;99.90
44990;DHT22;30723;51.206;3.326;2023-09-19T01:32:06;14.80;99.90
44990;DHT22;30723;51.206;3.326;2023-09-19T01:34:46;14.70;99.90
44990;DHT22;30723;51.206;3.326;2023-09-19T01:37:16;14.80;99.90
44990;DHT22;30723;51.206;3.326;2023-09-19T01:39:52;14.70;99.90
44990;DHT22;30723;51.206;3.326;2023-09-19T01:45:37;14.70;99.90
44990;DHT22;30723;51.206;3.326;2023-09-19T01:50:44;14.80;99.90
44990;DHT22;30723;51.206;3.326;2023-09-19T01:53:23;14.80;99.90
44990;DHT22;30723;51.206;3.326;2023-09-19T01:55:51;14.80;99.90
44990;DHT22;30723;51.206;3.326;2023-09-19T01:58:56;14.80;99.90
44990;DHT22;30723;51.206;3.326;2023-09-19T02:01:26;14.90;99.90
44990;DHT22;30723;51.206;3.326;2023-09-19T02:03:52;14.90;99.90
44990;DHT22;30723;51.206;3.326;2023-09-19T02:06:19;14.80;99.90
44990;DHT22;30723;51.206;3.326;2023-09-19T02:08:45;14.80;99.90
44990;DHT22;30723;51.206;3.326;2023-09-19T02:11:13;14.80;99.90
44990;DHT22;30723;51.206;3.326;2023-09-19T02:13:39;14.80;99.90
44990;DHT22;30723;51.206;3.326;2023-09-19T02:16:06;14.90;99.90
44990;DHT22;30723;51.206;3.326;2023-09-19T02:18:32;14.90;99.90
44990;DHT22;30723;51.206;3.326;2023-09-19T02:21:01;14.80;99.90
44990;DHT22;30723;51.206;3.326;2023-09-19T02:23:27;14.80;99.90
44990;DHT22;30723;51.206;3.326;2023-09-19T02:25:57;14.80;99.90
44990;DHT22;30723;51.206;3.326;2023-09-19T02:28:31;14.80;99.90
44990;DHT22;30723;51.206;3.326;2023-09-19T02:30:58;14.80;99.90
44990;DHT22;30723;51.206;3.326;2023-09-19T02:33:24;14.90;99.90
44990;DHT22;30723;51.206;3.326;2023-09-19T02:35:54;14.90;99.90
44990;DHT22;30723;51.206;3.326;2023-09-19T02:38:19;14.90;99.90
44990;DHT22;30723;51.206;3.326;2023-09-19T02:40:50;14.90;99.90
44990;DHT22;30723;51.206;3.326;2023-09-19T02:43:16;15.00;99.90
44990;DHT22;30723;51.206;3.326;2023-09-19T02:45:42;15.10;99.90
44990;DHT22;30723;51.206;3.326;2023-09-19T02:48:08;15.00;99.90
44990;DHT22;30723;51.206;3.326;2023-09-19T02:50:34;15.00;99.90
44990;DHT22;30723;51.206;3.326;2023-09-19T02:53:00;15.00;99.90
44990;DHT22;30723;51.206;3.326;2023-09-19T02:55:26;15.00;99.90
44990;DHT22;30723;51.206;3.326;2023-09-19T02:57:53;15.10;99.90
44990;DHT22;30723;51.206;3.326;2023-09-19T03:00:23;15.00;99.90
44990;DHT22;30723;51.206;3.326;2023-09-19T03:02:53;15.00;99.90
44990;DHT22;30723;51.206;3.326;2023-09-19T03:05:20;15.00;99.90
44990;DHT22;30723;51.206;3.326;2023-09-19T03:07:47;15.00;99.90
44990;DHT22;30723;51.206;3.326;2023-09-19T03:10:19;15.00;99.90
44990;DHT22;30723;51.206;3.326;2023-09-19T03:12:47;15.00;99.90
44990;DHT22;30723;51.206;3.326;2023-09-19T03:15:14;15.00;99.90
44990;DHT22;30723;51.206;3.326;2023-09-19T03:17:50;14.90;99.90
44990;DHT22;30723;51.206;3.326;2023-09-19T03:20:17;14.90;99.90
44990;DHT22;30723;51.206;3.326;2023-09-19T03:22:44;14.90;99.90
44990;DHT22;30723;51.206;3.326;2023-09-19T03:25:10;14.90;99.90
44990;DHT22;30723;51.206;3.326;2023-09-19T03:27:37;14.80;99.90
44990;DHT22;30723;51.206;3.326;2023-09-19T03:30:04;14.80;99.90
44990;DHT22;30723;51.206;3.326;2023-09-19T03:32:35;14.80;99.90
44990;DHT22;30723;51.206;3.326;2023-09-19T03:35:02;14.90;99.90
44990;DHT22;30723;51.206;3.326;2023-09-19T03:37:29;14.90;99.90
44990;DHT22;30723;51.206;3.326;2023-09-19T03:39:54;14.80;99.90
44990;DHT22;30723;51.206;3.326;2023-09-19T03:42:20;14.90;99.90
44990;DHT22;30723;51.206;3.326;2023-09-19T03:44:51;14.90;99.90
44990;DHT22;30723;51.206;3.326;2023-09-19T03:47:18;14.80;99.90
44990;DHT22;30723;51.206;3.326;2023-09-19T03:49:44;14.80;99.90
44990;DHT22;30723;51.206;3.326;2023-09-19T03:52:10;14.70;99.90
44990;DHT22;30723;51.206;3.326;2023-09-19T03:54:36;14.70;99.90
44990;DHT22;30723;51.206;3.326;2023-09-19T03:57:02;14.70;99.90
44990;DHT22;30723;51.206;3.326;2023-09-19T03:59:30;14.70;99.90
44990;DHT22;30723;51.206;3.326;2023-09-19T04:01:56;14.70;99.90
44990;DHT22;30723;51.206;3.326;2023-09-19T04:04:22;14.70;99.90
44990;DHT22;30723;51.206;3.326;2023-09-19T04:06:51;14.70;99.90
44990;DHT22;30723;51.206;3.326;2023-09-19T04:09:16;14.70;99.90
44990;DHT22;30723;51.206;3.326;2023-09-19T04:11:42;14.80;99.90
44990;DHT22;30723;51.206;3.326;2023-09-19T04:14:08;14.80;99.90
44990;DHT22;30723;51.206;3.326;2023-09-19T04:16:34;14.80;99.90
44990;DHT22;30723;51.206;3.326;2023-09-19T04:18:59;14.90;99.90
44990;DHT22;30723;51.206;3.326;2023-09-19T04:21:25;14.90;99.90
44990;DHT22;30723;51.206;3.326;2023-09-19T04:23:52;15.00;99.90
44990;DHT22;30723;51.206;3.326;2023-09-19T04:26:18;15.00;99.90
44990;DHT22;30723;51.206;3.326;2023-09-19T04:28:43;14.90;99.90
44990;DHT22;30723;51.206;3.326;2023-09-19T04:31:09;15.00;99.90
44990;DHT22;30723;51.206;3.326;2023-09-19T04:33:37;14.90;99.90
44990;DHT22;30723;51.206;3.326;2023-09-19T04:36:03;15.00;99.90
44990;DHT22;30723;51.206;3.326;2023-09-19T04:38:31;15.00;99.90
44990;DHT22;30723;51.206;3.326;2023-09-19T04:40:57;15.10;99.90
44990;DHT22;30723;51.206;3.326;2023-09-19T04:43:25;15.10;99.90
44990;DHT22;30723;51.206;3.326;2023-09-19T04:45:50;15.00;99.90
44990;DHT22;30723;51.206;3.326;2023-09-19T04:48:19;15.00;99.90
44990;DHT22;30723;51.206;3.326;2023-09-19T04:50:45;14.90;99.90
44990;DHT22;30723;51.206;3.326;2023-09-19T04:53:11;14.80;99.90
44990;DHT22;30723;51.206;3.326;2023-09-19T04:55:37;14.70;99.90
44990;DHT22;30723;51.206;3.326;2023-09-19T04:58:02;14.60;99.90
44990;DHT22;30723;51.206;3.326;2023-09-19T05:00:29;14.60;99.90
44990;DHT22;30723;51.206;3.326;2023-09-19T05:02:56;14.50;99.90
44990;DHT22;30723;51.206;3.326;2023-09-19T05:05:23;14.50;99.90
44990;DHT22;30723;51.206;3.326;2023-09-19T05:07:52;14.50;99.90
44990;DHT22;30723;51.206;3.326;2023-09-19T05:10:21;14.40;99.90
44990;DHT22;30723;51.206;3.326;2023-09-19T05:12:47;14.40;99.90
44990;DHT22;30723;51.206;3.326;2023-09-19T05:15:14;14.40;99.90
44990;DHT22;30723;51.206;3.326;2023-09-19T05:17:48;14.40;99.90
44990;DHT22;30723;51.206;3.326;2023-09-19T05:20:15;14.40;99.90
44990;DHT22;30723;51.206;3.326;2023-09-19T05:22:57;14.40;99.90
44990;DHT22;30723;51.206;3.326;2023-09-19T05:25:23;14.40;99.90
44990;DHT22;30723;51.206;3.326;2023-09-19T05:27:48;14.40;99.90
44990;DHT22;30723;51.206;3.326;2023-09-19T05:30:16;14.40;99.90
44990;DHT22;30723;51.206;3.326;2023-09-19T05:32:41;14.40;99.90
44990;DHT22;30723;51.206;3.326;2023-09-19T05:35:09;14.40;99.90
44990;DHT22;30723;51.206;3.326;2023-09-19T05:37:35;14.40;99.90
44990;DHT22;30723;51.206;3.326;2023-09-19T05:40:02;14.40;99.90
44990;DHT22;30723;51.206;3.326;2023-09-19T05:42:32;14.60;99.90
44990;DHT22;30723;51.206;3.326;2023-09-19T05:44:58;14.60;99.90
44990;DHT22;30723;51.206;3.326;2023-09-19T05:47:24;14.60;99.90
44990;DHT22;30723;51.206;3.326;2023-09-19T05:49:50;14.60;99.90
44990;DHT22;30723;51.206;3.326;2023-09-19T05:52:17;14.70;99.90
44990;DHT22;30723;51.206;3.326;2023-09-19T05:54:44;14.70;99.90
44990;DHT22;30723;51.206;3.326;2023-09-19T05:57:10;14.70;99.90
44990;DHT22;30723;51.206;3.326;2023-09-19T05:59:37;14.70;99.90
44990;DHT22;30723;51.206;3.326;2023-09-19T06:02:05;14.70;99.90
44990;DHT22;30723;51.206;3.326;2023-09-19T06:04:32;14.80;99.90
44990;DHT22;30723;51.206;3.326;2023-09-19T06:06:57;14.80;99.90
44990;DHT22;30723;51.206;3.326;2023-09-19T06:09:24;14.80;99.90
44990;DHT22;30723;51.206;3.326;2023-09-19T06:11:49;14.80;99.90
44990;DHT22;30723;51.206;3.326;2023-09-19T06:14:16;14.80;99.90
44990;DHT22;30723;51.206;3.326;2023-09-19T06:16:43;14.80;99.90
44990;DHT22;30723;51.206;3.326;2023-09-19T06:19:09;14.90;99.90
44990;DHT22;30723;51.206;3.326;2023-09-19T06:21:36;15.00;99.90
44990;DHT22;30723;51.206;3.326;2023-09-19T06:24:02;14.90;99.90
44990;DHT22;30723;51.206;3.326;2023-09-19T06:26:28;15.00;99.90
44990;DHT22;30723;51.206;3.326;2023-09-19T06:28:55;15.00;99.90
44990;DHT22;30723;51.206;3.326;2023-09-19T06:31:21;15.10;99.90
44990;DHT22;30723;51.206;3.326;2023-09-19T06:33:52;15.10;99.90
44990;DHT22;30723;51.206;3.326;2023-09-19T06:36:17;15.10;99.90
44990;DHT22;30723;51.206;3.326;2023-09-19T06:38:45;15.20;99.90
44990;DHT22;30723;51.206;3.326;2023-09-19T06:41:10;15.30;99.90
44990;DHT22;30723;51.206;3.326;2023-09-19T06:43:38;15.30;99.90
44990;DHT22;30723;51.206;3.326;2023-09-19T06:46:04;15.40;99.90
44990;DHT22;30723;51.206;3.326;2023-09-19T06:48:32;15.40;99.90
44990;DHT22;30723;51.206;3.326;2023-09-19T06:50:59;15.50;99.90
44990;DHT22;30723;51.206;3.326;2023-09-19T06:53:31;15.50;99.90
44990;DHT22;30723;51.206;3.326;2023-09-19T06:55:57;15.70;99.90
44990;DHT22;30723;51.206;3.326;2023-09-19T06:58:23;15.70;99.90
44990;DHT22;30723;51.206;3.326;2023-09-19T07:00:49;15.70;99.90
44990;DHT22;30723;51.206;3.326;2023-09-19T07:03:16;15.80;99.90
44990;DHT22;30723;51.206;3.326;2023-09-19T07:05:48;15.90;99.90
44990;DHT22;30723;51.206;3.326;2023-09-19T07:08:14;16.00;99.90
44990;DHT22;30723;51.206;3.326;2023-09-19T07:10:42;16.10;99.90
44990;DHT22;30723;51.206;3.326;2023-09-19T07:13:15;16.00;99.90
44990;DHT22;30723;51.206;3.326;2023-09-19T07:15:43;16.00;99.90
44990;DHT22;30723;51.206;3.326;2023-09-19T07:18:16;16.10;99.90
44990;DHT22;30723;51.206;3.326;2023-09-19T07:20:43;16.10;99.90
44990;DHT22;30723;51.206;3.326;2023-09-19T07:23:19;16.30;99.90
44990;DHT22;30723;51.206;3.326;2023-09-19T07:25:47;16.30;99.90
44990;DHT22;30723;51.206;3.326;2023-09-19T07:28:14;16.40;99.90
44990;DHT22;30723;51.206;3.326;2023-09-19T07:30:41;16.40;99.90
44990;DHT22;30723;51.206;3.326;2023-09-19T07:33:07;16.50;99.90
44990;DHT22;30723;51.206;3.326;2023-09-19T07:35:37;16.60;99.90
44990;DHT22;30723;51.206;3.326;2023-09-19T07:38:05;16.70;99.90
44990;DHT22;30723;51.206;3.326;2023-09-19T07:40:31;16.70;99.90
44990;DHT22;30723;51.206;3.326;2023-09-19T07:42:57;16.70;99.90
44990;DHT22;30723;51.206;3.326;2023-09-19T07:45:30;16.80;99.90
44990;DHT22;30723;51.206;3.326;2023-09-19T07:47:57;16.70;99.90
44990;DHT22;30723;51.206;3.326;2023-09-19T07:50:23;16.70;99.90
44990;DHT22;30723;51.206;3.326;2023-09-19T07:52:50;16.70;99.90
44990;DHT22;30723;51.206;3.326;2023-09-19T07:55:19;16.80;99.90
44990;DHT22;30723;51.206;3.326;2023-09-19T07:57:48;16.80;99.90
44990;DHT22;30723;51.206;3.326;2023-09-19T08:00:15;16.90;99.90
44990;DHT22;30723;51.206;3.326;2023-09-19T08:02:41;16.90;99.90
44990;DHT22;30723;51.206;3.326;2023-09-19T08:05:12;17.00;99.90
44990;DHT22;30723;51.206;3.326;2023-09-19T08:07:42;17.10;99.90
44990;DHT22;30723;51.206;3.326;2023-09-19T08:10:10;17.10;99.90
44990;DHT22;30723;51.206;3.326;2023-09-19T08:12:39;17.20;99.90
44990;DHT22;30723;51.206;3.326;2023-09-19T08:15:20;17.30;99.90
44990;DHT22;30723;51.206;3.326;2023-09-19T08:17:47;17.40;99.90
44990;DHT22;30723;51.206;3.326;2023-09-19T08:20:13;17.30;99.90
44990;DHT22;30723;51.206;3.326;2023-09-19T08:22:49;17.30;99.90
44990;DHT22;30723;51.206;3.326;2023-09-19T08:25:18;17.30;99.90
44990;DHT22;30723;51.206;3.326;2023-09-19T08:27:46;17.30;99.90
44990;DHT22;30723;51.206;3.326;2023-09-19T08:30:17;17.20;99.90
44990;DHT22;30723;51.206;3.326;2023-09-19T08:32:43;17.00;99.90
44990;DHT22;30723;51.206;3.326;2023-09-19T08:35:10;17.10;99.90
44990;DHT22;30723;51.206;3.326;2023-09-19T08:37:36;17.10;99.90
44990;DHT22;30723;51.206;3.326;2023-09-19T08:40:02;17.20;99.90
44990;DHT22;30723;51.206;3.326;2023-09-19T08:42:28;17.40;99.90
44990;DHT22;30723;51.206;3.326;2023-09-19T08:44:55;17.60;99.90
44990;DHT22;30723;51.206;3.326;2023-09-19T08:47:36;17.80;99.90
44990;DHT22;30723;51.206;3.326;2023-09-19T08:50:11;17.80;99.90
44990;DHT22;30723;51.206;3.326;2023-09-19T08:52:43;17.90;99.90
44990;DHT22;30723;51.206;3.326;2023-09-19T08:55:13;17.90;99.90
44990;DHT22;30723;51.206;3.326;2023-09-19T08:57:46;18.00;99.90
44990;DHT22;30723;51.206;3.326;2023-09-19T09:00:15;18.00;99.90
44990;DHT22;30723;51.206;3.326;2023-09-19T09:02:44;18.10;99.90
44990;DHT22;30723;51.206;3.326;2023-09-19T09:05:11;18.10;99.90
44990;DHT22;30723;51.206;3.326;2023-09-19T09:07:40;18.10;99.90
44990;DHT22;30723;51.206;3.326;2023-09-19T09:10:07;18.10;99.90
44990;DHT22;30723;51.206;3.326;2023-09-19T09:12:35;18.10;99.90
44990;DHT22;30723;51.206;3.326;2023-09-19T09:15:02;18.70;99.90
44990;DHT22;30723;51.206;3.326;2023-09-19T09:17:29;19.20;99.90
44990;DHT22;30723;51.206;3.326;2023-09-19T09:19:56;19.90;99.90
44990;DHT22;30723;51.206;3.326;2023-09-19T09:22:22;20.50;99.90
44990;DHT22;30723;51.206;3.326;2023-09-19T09:24:59;21.20;99.90
44990;DHT22;30723;51.206;3.326;2023-09-19T09:27:27;21.80;99.90
44990;DHT22;30723;51.206;3.326;2023-09-19T09:29:53;22.40;99.90
44990;DHT22;30723;51.206;3.326;2023-09-19T09:32:29;22.70;99.90
44990;DHT22;30723;51.206;3.326;2023-09-19T09:35:00;23.10;99.90
44990;DHT22;30723;51.206;3.326;2023-09-19T09:37:27;23.20;99.90
44990;DHT22;30723;51.206;3.326;2023-09-19T09:40:02;23.00;99.90
44990;DHT22;30723;51.206;3.326;2023-09-19T09:42:42;22.70;99.90
44990;DHT22;30723;51.206;3.326;2023-09-19T09:45:19;22.20;99.90
44990;DHT22;30723;51.206;3.326;2023-09-19T09:47:54;22.20;99.90
44990;DHT22;30723;51.206;3.326;2023-09-19T09:50:31;22.10;99.90
44990;DHT22;30723;51.206;3.326;2023-09-19T09:53:24;22.20;99.90
44990;DHT22;30723;51.206;3.326;2023-09-19T09:55:59;21.90;99.90
44990;DHT22;30723;51.206;3.326;2023-09-19T09:58:26;22.50;99.90
44990;DHT22;30723;51.206;3.326;2023-09-19T10:00:58;22.90;99.90
44990;DHT22;30723;51.206;3.326;2023-09-19T10:03:34;22.40;99.90
44990;DHT22;30723;51.206;3.326;2023-09-19T10:06:05;22.80;99.90
44990;DHT22;30723;51.206;3.326;2023-09-19T10:09:07;23.00;99.90
44990;DHT22;30723;51.206;3.326;2023-09-19T10:11:47;23.20;99.90
44990;DHT22;30723;51.206;3.326;2023-09-19T10:14:27;24.30;99.90
44990;DHT22;30723;51.206;3.326;2023-09-19T10:16:58;25.00;99.90
44990;DHT22;30723;51.206;3.326;2023-09-19T10:19:58;25.10;99.90
44990;DHT22;30723;51.206;3.326;2023-09-19T10:22:26;24.60;99.90
44990;DHT22;30723;51.206;3.326;2023-09-19T10:24:57;24.30;99.90
44990;DHT22;30723;51.206;3.326;2023-09-19T10:27:26;24.50;99.90
44990;DHT22;30723;51.206;3.326;2023-09-19T10:29:53;24.20;99.90
44990;DHT22;30723;51.206;3.326;2023-09-19T10:32:23;23.70;99.90
44990;DHT22;30723;51.206;3.326;2023-09-19T10:34:50;23.00;99.90
44990;DHT22;30723;51.206;3.326;2023-09-19T10:37:20;22.30;99.90
44990;DHT22;30723;51.206;3.326;2023-09-19T10:39:48;22.20;99.90
44990;DHT22;30723;51.206;3.326;2023-09-19T10:42:19;22.20;99.90
44990;DHT22;30723;51.206;3.326;2023-09-19T10:44:51;22.40;99.90
44990;DHT22;30723;51.206;3.326;2023-09-19T10:47:20;22.10;99.90
44990;DHT22;30723;51.206;3.326;2023-09-19T10:49:48;21.70;99.90
44990;DHT22;30723;51.206;3.326;2023-09-19T10:52:17;21.30;99.90
44990;DHT22;30723;51.206;3.326;2023-09-19T10:54:50;21.30;99.90
44990;DHT22;30723;51.206;3.326;2023-09-19T10:57:23;21.30;99.90
44990;DHT22;30723;51.206;3.326;2023-09-19T11:00:09;21.10;99.90
44990;DHT22;30723;51.206;3.326;2023-09-19T11:05:40;20.50;99.90
44990;DHT22;30723;51.206;3.326;2023-09-19T11:08:07;20.50;99.90
44990;DHT22;30723;51.206;3.326;2023-09-19T11:10:49;20.50;99.90
44990;DHT22;30723;51.206;3.326;2023-09-19T11:13:31;20.60;99.90
44990;DHT22;30723;51.206;3.326;2023-09-19T11:27:09;20.70;99.90
44990;DHT22;30723;51.206;3.326;2023-09-19T11:29:37;20.60;99.90
44990;DHT22;30723;51.206;3.326;2023-09-19T11:32:04;20.70;99.90
44990;DHT22;30723;51.206;3.326;2023-09-19T11:34:37;21.30;99.90
44990;DHT22;30723;51.206;3.326;2023-09-19T11:39:37;21.70;99.90
44990;DHT22;30723;51.206;3.326;2023-09-19T11:42:45;21.50;99.90
44990;DHT22;30723;51.206;3.326;2023-09-19T11:48:23;21.70;99.90
44990;DHT22;30723;51.206;3.326;2023-09-19T11:50:53;21.50;99.90
44990;DHT22;30723;51.206;3.326;2023-09-19T11:53:20;21.60;99.90
44990;DHT22;30723;51.206;3.326;2023-09-19T11:55:46;21.80;99.90
44990;DHT22;30723;51.206;3.326;2023-09-19T11:58:15;22.50;99.90
44990;DHT22;30723;51.206;3.326;2023-09-19T12:00:44;22.60;99.90
44990;DHT22;30723;51.206;3.326;2023-09-19T12:03:12;22.50;99.90
44990;DHT22;30723;51.206;3.326;2023-09-19T12:05:39;22.20;99.90
44990;DHT22;30723;51.206;3.326;2023-09-19T12:08:07;21.80;99.90
44990;DHT22;30723;51.206;3.326;2023-09-19T12:10:54;21.70;99.90
44990;DHT22;30723;51.206;3.326;2023-09-19T12:13:23;21.70;99.90
44990;DHT22;30723;51.206;3.326;2023-09-19T12:15:49;21.80;99.90
44990;DHT22;30723;51.206;3.326;2023-09-19T12:18:28;21.70;99.90
44990;DHT22;30723;51.206;3.326;2023-09-19T12:20:55;22.20;99.90
44990;DHT22;30723;51.206;3.326;2023-09-19T12:23:21;22.60;99.90
44990;DHT22;30723;51.206;3.326;2023-09-19T12:25:47;22.80;99.90
44990;DHT22;30723;51.206;3.326;2023-09-19T12:28:14;22.90;99.90
44990;DHT22;30723;51.206;3.326;2023-09-19T12:30:42;22.60;99.90
44990;DHT22;30723;51.206;3.326;2023-09-19T12:33:20;22.30;99.90
44990;DHT22;30723;51.206;3.326;2023-09-19T12:35:47;22.10;99.90
44990;DHT22;30723;51.206;3.326;2023-09-19T12:38:28;21.70;99.90
44990;DHT22;30723;51.206;3.326;2023-09-19T12:40:57;21.40;99.90
44990;DHT22;30723;51.206;3.326;2023-09-19T12:43:31;20.90;99.90
44990;DHT22;30723;51.206;3.326;2023-09-19T12:46:05;20.60;99.90
44990;DHT22;30723;51.206;3.326;2023-09-19T12:48:31;20.50;99.90
44990;DHT22;30723;51.206;3.326;2023-09-19T12:53:37;20.30;99.90
44990;DHT22;30723;51.206;3.326;2023-09-19T12:56:11;20.20;99.90
44990;DHT22;30723;51.206;3.326;2023-09-19T12:58:56;20.10;99.90
44990;DHT22;30723;51.206;3.326;2023-09-19T13:01:25;20.10;99.90
44990;DHT22;30723;51.206;3.326;2023-09-19T13:04:15;20.00;99.90
44990;DHT22;30723;51.206;3.326;2023-09-19T13:06:49;20.00;99.90
44990;DHT22;30723;51.206;3.326;2023-09-19T13:09:16;20.00;99.90
44990;DHT22;30723;51.206;3.326;2023-09-19T13:11:42;20.00;99.90
44990;DHT22;30723;51.206;3.326;2023-09-19T13:14:16;20.10;99.90
44990;DHT22;30723;51.206;3.326;2023-09-19T13:19:43;20.10;99.90
44990;DHT22;30723;51.206;3.326;2023-09-19T13:22:37;20.10;99.90
44990;DHT22;30723;51.206;3.326;2023-09-19T13:25:09;20.00;99.90
44990;DHT22;30723;51.206;3.326;2023-09-19T13:27:42;19.90;99.90
44990;DHT22;30723;51.206;3.326;2023-09-19T13:30:11;20.20;99.90
44990;DHT22;30723;51.206;3.326;2023-09-19T13:32:37;21.00;99.90
44990;DHT22;30723;51.206;3.326;2023-09-19T13:35:04;21.40;99.90
44990;DHT22;30723;51.206;3.326;2023-09-19T13:37:32;22.00;99.90
44990;DHT22;30723;51.206;3.326;2023-09-19T13:39:59;23.20;99.90
44990;DHT22;30723;51.206;3.326;2023-09-19T13:42:25;23.40;99.90
44990;DHT22;30723;51.206;3.326;2023-09-19T13:44:55;23.00;99.90
44990;DHT22;30723;51.206;3.326;2023-09-19T13:47:22;22.30;99.90
44990;DHT22;30723;51.206;3.326;2023-09-19T13:49:51;21.80;99.90
44990;DHT22;30723;51.206;3.326;2023-09-19T13:52:21;21.30;99.90
44990;DHT22;30723;51.206;3.326;2023-09-19T13:54:52;21.00;99.90
44990;DHT22;30723;51.206;3.326;2023-09-19T13:57:18;20.80;99.90
44990;DHT22;30723;51.206;3.326;2023-09-19T13:59:44;20.70;99.90
44990;DHT22;30723;51.206;3.326;2023-09-19T14:02:10;20.60;99.90
44990;DHT22;30723;51.206;3.326;2023-09-19T14:04:36;20.70;99.90
44990;DHT22;30723;51.206;3.326;2023-09-19T14:07:02;20.80;99.90
44990;DHT22;30723;51.206;3.326;2023-09-19T14:09:30;20.80;99.90
44990;DHT22;30723;51.206;3.326;2023-09-19T14:11:55;20.60;99.90
44990;DHT22;30723;51.206;3.326;2023-09-19T14:14:22;20.50;99.90
44990;DHT22;30723;51.206;3.326;2023-09-19T14:16:48;20.60;99.90
44990;DHT22;30723;51.206;3.326;2023-09-19T14:19:14;20.70;99.90
44990;DHT22;30723;51.206;3.326;2023-09-19T14:21:42;20.60;99.90
44990;DHT22;30723;51.206;3.326;2023-09-19T14:24:08;20.50;99.90
44990;DHT22;30723;51.206;3.326;2023-09-19T14:26:41;20.40;99.90
44990;DHT22;30723;51.206;3.326;2023-09-19T14:29:06;20.40;99.90
44990;DHT22;30723;51.206;3.326;2023-09-19T14:31:38;20.20;99.90
44990;DHT22;30723;51.206;3.326;2023-09-19T14:34:06;20.10;99.90
44990;DHT22;30723;51.206;3.326;2023-09-19T14:36:32;20.00;99.90
44990;DHT22;30723;51.206;3.326;2023-09-19T14:38:58;19.90;99.90
44990;DHT22;30723;51.206;3.326;2023-09-19T14:41:25;20.00;99.90
44990;DHT22;30723;51.206;3.326;2023-09-19T14:43:55;20.00;99.90
44990;DHT22;30723;51.206;3.326;2023-09-19T14:46:21;20.10;99.90
44990;DHT22;30723;51.206;3.326;2023-09-19T14:48:52;20.10;99.90
44990;DHT22;30723;51.206;3.326;2023-09-19T14:51:18;20.20;99.90
44990;DHT22;30723;51.206;3.326;2023-09-19T14:53:45;20.20;99.90
44990;DHT22;30723;51.206;3.326;2023-09-19T14:56:11;20.10;99.90
44990;DHT22;30723;51.206;3.326;2023-09-19T14:58:38;20.00;99.90
44990;DHT22;30723;51.206;3.326;2023-09-19T15:01:06;20.00;99.90
44990;DHT22;30723;51.206;3.326;2023-09-19T15:03:33;19.90;99.90
44990;DHT22;30723;51.206;3.326;2023-09-19T15:06:03;20.00;99.90
44990;DHT22;30723;51.206;3.326;2023-09-19T15:08:31;20.10;99.90
44990;DHT22;30723;51.206;3.326;2023-09-19T15:10:56;20.20;99.90
44990;DHT22;30723;51.206;3.326;2023-09-19T15:13:24;20.20;99.90
44990;DHT22;30723;51.206;3.326;2023-09-19T15:16:07;20.10;99.90
44990;DHT22;30723;51.206;3.326;2023-09-19T15:18:38;20.10;99.90
44990;DHT22;30723;51.206;3.326;2023-09-19T15:21:05;20.00;99.90
44990;DHT22;30723;51.206;3.326;2023-09-19T15:23:35;19.80;99.90
44990;DHT22;30723;51.206;3.326;2023-09-19T15:26:06;19.40;99.90
44990;DHT22;30723;51.206;3.326;2023-09-19T15:28:32;19.10;99.90
44990;DHT22;30723;51.206;3.326;2023-09-19T15:31:07;19.00;99.90
44990;DHT22;30723;51.206;3.326;2023-09-19T15:33:34;18.90;99.90
44990;DHT22;30723;51.206;3.326;2023-09-19T15:36:04;18.80;99.90
44990;DHT22;30723;51.206;3.326;2023-09-19T15:38:31;18.90;99.90
44990;DHT22;30723;51.206;3.326;2023-09-19T15:40:58;19.00;99.90
44990;DHT22;30723;51.206;3.326;2023-09-19T15:43:26;19.10;99.90
44990;DHT22;30723;51.206;3.326;2023-09-19T15:45:52;19.10;99.90
44990;DHT22;30723;51.206;3.326;2023-09-19T15:48:17;19.20;99.90
44990;DHT22;30723;51.206;3.326;2023-09-19T15:50:47;19.30;99.90
44990;DHT22;30723;51.206;3.326;2023-09-19T15:53:13;19.20;99.90
44990;DHT22;30723;51.206;3.326;2023-09-19T15:55:39;19.00;99.90
44990;DHT22;30723;51.206;3.326;2023-09-19T15:58:09;18.70;99.90
44990;DHT22;30723;51.206;3.326;2023-09-19T16:00:40;18.50;99.90
44990;DHT22;30723;51.206;3.326;2023-09-19T16:03:06;18.30;99.90
44990;DHT22;30723;51.206;3.326;2023-09-19T16:05:37;18.10;99.90
44990;DHT22;30723;51.206;3.326;2023-09-19T16:08:06;17.90;99.90
44990;DHT22;30723;51.206;3.326;2023-09-19T16:10:35;17.70;99.90
44990;DHT22;30723;51.206;3.326;2023-09-19T16:13:04;17.60;99.90
44990;DHT22;30723;51.206;3.326;2023-09-19T16:15:30;17.60;99.90
44990;DHT22;30723;51.206;3.326;2023-09-19T16:17:56;17.50;99.90
44990;DHT22;30723;51.206;3.326;2023-09-19T16:20:22;17.50;99.90
44990;DHT22;30723;51.206;3.326;2023-09-19T16:22:49;17.40;99.90
44990;DHT22;30723;51.206;3.326;2023-09-19T16:25:15;17.30;99.90
44990;DHT22;30723;51.206;3.326;2023-09-19T16:27:41;17.30;99.90